createdAt,value
2023-05-05T00:00:14.943Z,0.00
2023-05-05T00:01:14.890Z,0.00
2023-05-05T00:02:14.680Z,0.00
2023-05-05T00:03:14.595Z,0.00
2023-05-05T00:04:15.017Z,0.00
2023-05-05T00:05:14.623Z,0.00
2023-05-05T00:06:14.570Z,0.00
2023-05-05T00:07:15.346Z,0.00
2023-05-05T00:08:14.189Z,0.00
2023-05-05T00:09:14.637Z,0.00
2023-05-05T00:10:14.250Z,0.00
2023-05-05T00:11:14.301Z,0.00
2023-05-05T00:12:14.096Z,0.00
2023-05-05T00:13:14.435Z,0.00
2023-05-05T00:14:14.839Z,0.00
2023-05-05T00:15:15.779Z,0.00
2023-05-05T00:16:14.653Z,0.00
2023-05-05T00:17:14.669Z,0.00
2023-05-05T00:18:14.499Z,0.00
2023-05-05T00:19:14.164Z,0.00
2023-05-05T00:20:14.518Z,0.00
2023-05-05T00:21:14.318Z,0.00
2023-05-05T00:22:15.170Z,0.00
2023-05-05T00:23:14.598Z,0.00
2023-05-05T00:24:14.530Z,0.00
2023-05-05T00:25:17.068Z,0.00
2023-05-05T00:26:14.200Z,0.00
2023-05-05T00:27:14.050Z,0.00
2023-05-05T00:28:14.848Z,0.00
2023-05-05T00:29:13.984Z,0.00
2023-05-05T00:32:53.395Z,0.00
2023-05-05T00:33:53.252Z,0.00
2023-05-05T00:34:53.220Z,0.00
2023-05-05T00:35:53.210Z,0.00
2023-05-05T00:36:53.164Z,0.00
2023-05-05T00:37:53.281Z,0.00
2023-05-05T00:38:53.149Z,0.00
2023-05-05T00:39:53.793Z,0.00
2023-05-05T00:40:53.284Z,0.00
2023-05-05T00:41:53.103Z,0.00
2023-05-05T00:44:15.938Z,0.00
2023-05-05T00:45:15.842Z,0.00
2023-05-05T00:46:15.814Z,0.00
2023-05-05T00:47:15.749Z,0.00
2023-05-05T00:48:15.729Z,0.00
2023-05-05T00:49:15.704Z,0.00
2023-05-05T00:50:15.688Z,0.00
2023-05-05T00:51:15.646Z,0.00
2023-05-05T00:52:15.619Z,0.00
2023-05-05T00:53:15.605Z,0.00
2023-05-05T00:54:15.601Z,0.00
2023-05-05T00:55:15.599Z,0.00
2023-05-05T00:56:15.567Z,0.00
2023-05-05T00:57:15.552Z,0.00
2023-05-05T00:58:15.547Z,0.00
2023-05-05T00:59:15.545Z,0.00
2023-05-05T01:00:15.548Z,0.00
2023-05-05T01:01:15.617Z,0.00
2023-05-05T01:02:15.494Z,0.00
2023-05-05T01:03:15.639Z,0.00
2023-05-05T01:04:15.463Z,0.00
2023-05-05T01:05:15.486Z,0.00
2023-05-05T01:06:15.452Z,0.00
2023-05-05T01:07:15.431Z,0.00
2023-05-05T01:08:15.445Z,0.00
2023-05-05T01:09:15.401Z,0.00
2023-05-05T01:10:19.806Z,0.00
2023-05-05T01:11:15.388Z,0.00
2023-05-05T01:12:15.380Z,0.00
2023-05-05T01:13:15.406Z,0.00
2023-05-05T01:14:15.341Z,0.00
2023-05-05T01:15:15.326Z,0.00
2023-05-05T01:16:15.430Z,0.00
2023-05-05T01:17:15.310Z,0.00
2023-05-05T01:18:15.298Z,0.00
2023-05-05T01:19:15.282Z,0.00
2023-05-05T01:20:15.272Z,0.00
2023-05-05T01:21:15.279Z,0.00
2023-05-05T01:22:15.249Z,0.00
2023-05-05T01:23:15.232Z,0.00
2023-05-05T01:24:15.233Z,0.00
2023-05-05T01:25:15.210Z,0.00
2023-05-05T01:26:15.248Z,0.00
2023-05-05T01:27:15.186Z,0.00
2023-05-05T01:28:15.197Z,0.00
2023-05-05T01:29:15.165Z,0.00
2023-05-05T01:30:15.154Z,0.00
2023-05-05T01:31:15.160Z,0.00
2023-05-05T01:32:15.150Z,0.00
2023-05-05T01:33:15.113Z,0.00
2023-05-05T01:34:15.107Z,0.00
2023-05-05T01:35:15.097Z,0.00
2023-05-05T01:36:15.072Z,0.00
2023-05-05T01:38:43.793Z,0.00
2023-05-05T01:39:43.769Z,0.00
2023-05-05T01:40:56.171Z,0.00
2023-05-05T01:41:44.160Z,0.00
2023-05-05T01:42:44.049Z,0.00
2023-05-05T01:43:43.704Z,0.00
2023-05-05T01:44:43.764Z,0.00
2023-05-05T01:45:43.677Z,0.00
2023-05-05T01:46:43.684Z,0.00
2023-05-05T01:47:53.886Z,0.00
2023-05-05T01:48:43.751Z,0.00
2023-05-05T01:49:55.022Z,0.00
2023-05-05T01:50:46.181Z,0.00
2023-05-05T01:51:44.917Z,0.00
2023-05-05T01:52:45.030Z,0.00
2023-05-05T01:53:45.028Z,0.00
2023-05-05T01:54:44.876Z,0.00
2023-05-05T01:55:44.806Z,0.00
2023-05-05T01:56:44.851Z,0.00
2023-05-05T01:57:45.582Z,0.00
2023-05-05T01:58:45.039Z,0.00
2023-05-05T01:59:44.938Z,0.00
2023-05-05T02:00:44.823Z,0.00
2023-05-05T02:01:44.940Z,0.00
2023-05-05T02:02:45.003Z,0.00
2023-05-05T02:03:44.961Z,0.00
2023-05-05T02:04:45.045Z,0.00
2023-05-05T02:05:44.693Z,0.00
2023-05-05T02:06:44.719Z,0.00
2023-05-05T02:07:44.690Z,0.00
2023-05-05T02:08:44.657Z,0.00
2023-05-05T02:09:44.705Z,0.00
2023-05-05T02:10:44.698Z,0.00
2023-05-05T02:11:44.763Z,0.00
2023-05-05T02:12:44.792Z,0.00
2023-05-05T02:13:44.717Z,0.00
2023-05-05T02:14:44.873Z,0.00
2023-05-05T02:15:44.527Z,0.00
2023-05-05T02:16:44.895Z,0.00
2023-05-05T02:17:44.832Z,0.00
2023-05-05T02:18:44.579Z,0.00
2023-05-05T02:19:44.597Z,0.00
2023-05-05T02:20:44.461Z,0.00
2023-05-05T02:21:44.447Z,0.00
2023-05-05T02:23:07.008Z,0.00
2023-05-05T02:23:45.378Z,0.00
2023-05-05T02:24:44.646Z,0.00
2023-05-05T02:25:44.379Z,0.00
2023-05-05T02:26:44.357Z,0.00
2023-05-05T02:27:44.314Z,0.00
2023-05-05T02:28:44.267Z,0.00
2023-05-05T02:29:44.315Z,0.00
2023-05-05T02:30:44.377Z,0.00
2023-05-05T02:31:44.348Z,0.00
2023-05-05T02:32:44.251Z,0.00
2023-05-05T02:33:44.254Z,0.00
2023-05-05T02:34:44.263Z,0.00
2023-05-05T02:35:44.136Z,0.00
2023-05-05T02:36:44.171Z,0.00
2023-05-05T02:37:44.158Z,0.00
2023-05-05T02:38:44.209Z,0.00
2023-05-05T02:39:44.122Z,0.00
2023-05-05T02:40:44.189Z,0.00
2023-05-05T02:41:44.148Z,0.00
2023-05-05T02:42:44.110Z,0.00
2023-05-05T02:43:45.032Z,0.00
2023-05-05T02:44:44.021Z,0.00
2023-05-05T02:45:44.080Z,0.00
2023-05-05T02:46:44.076Z,0.00
2023-05-05T02:47:44.045Z,0.00
2023-05-05T02:48:43.996Z,0.00
2023-05-05T02:52:01.010Z,0.00
2023-05-05T02:53:01.204Z,0.00
2023-05-05T02:54:01.157Z,0.00
2023-05-05T02:55:00.805Z,0.00
2023-05-05T02:56:00.719Z,0.00
2023-05-05T02:57:00.685Z,0.00
2023-05-05T02:58:00.725Z,0.00
2023-05-05T03:00:10.835Z,0.00
2023-05-05T03:01:10.759Z,0.00
2023-05-05T03:02:10.760Z,0.00
2023-05-05T03:03:10.765Z,0.00
2023-05-05T03:04:10.691Z,0.00
2023-05-05T03:05:21.495Z,0.00
2023-05-05T03:06:11.032Z,0.00
2023-05-05T03:07:10.851Z,0.00
2023-05-05T03:08:10.768Z,0.00
2023-05-05T03:09:10.612Z,0.00
2023-05-05T03:10:10.792Z,0.00
2023-05-05T03:11:20.831Z,0.00
2023-05-05T03:12:10.665Z,0.00
2023-05-05T03:13:10.746Z,0.00
2023-05-05T03:14:10.737Z,0.00
2023-05-05T03:15:10.821Z,0.00
2023-05-05T03:16:10.746Z,0.00
2023-05-05T03:17:20.763Z,0.00
2023-05-05T03:18:11.222Z,0.00
2023-05-05T03:19:10.656Z,0.00
2023-05-05T03:20:10.511Z,0.00
2023-05-05T03:21:10.527Z,0.00
2023-05-05T03:22:10.463Z,0.00
2023-05-05T03:23:20.756Z,4.00
2023-05-05T03:24:10.522Z,4.00
2023-05-05T03:25:10.528Z,4.00
2023-05-05T03:26:10.400Z,0.00
2023-05-05T03:27:10.381Z,4.00
2023-05-05T03:28:10.421Z,4.00
2023-05-05T03:29:20.596Z,4.00
2023-05-05T03:30:10.638Z,8.00
2023-05-05T03:31:10.506Z,4.00
2023-05-05T03:32:10.484Z,4.00
2023-05-05T03:33:10.343Z,8.00
2023-05-05T03:34:10.335Z,12.00
2023-05-05T03:35:20.487Z,12.00
2023-05-05T03:36:10.355Z,12.00
2023-05-05T03:37:10.390Z,16.00
2023-05-05T03:38:10.230Z,16.00
2023-05-05T03:39:10.237Z,20.00
2023-05-05T03:40:10.406Z,20.00
2023-05-05T03:41:20.559Z,24.00
2023-05-05T03:42:10.358Z,28.00
2023-05-05T03:43:10.254Z,32.00
2023-05-05T03:44:10.194Z,36.00
2023-05-05T03:45:10.320Z,36.00
2023-05-05T03:46:10.169Z,44.00
2023-05-05T03:47:20.332Z,44.00
2023-05-05T03:48:10.186Z,52.00
2023-05-05T03:49:10.135Z,56.00
2023-05-05T03:50:10.262Z,64.00
2023-05-05T03:51:10.073Z,68.00
2023-05-05T03:52:10.143Z,72.00
2023-05-05T03:53:20.275Z,80.00
2023-05-05T03:54:10.200Z,88.00
2023-05-05T03:55:10.166Z,92.00
2023-05-05T03:56:10.131Z,100.00
2023-05-05T03:57:10.056Z,108.00
2023-05-05T03:58:09.982Z,116.00
2023-05-05T03:59:20.366Z,120.00
2023-05-05T04:00:10.047Z,128.00
2023-05-05T04:01:10.116Z,140.00
2023-05-05T04:02:10.070Z,148.00
2023-05-05T04:03:10.075Z,156.00
2023-05-05T04:04:09.991Z,164.00
2023-05-05T04:05:20.217Z,176.00
2023-05-05T04:06:10.044Z,188.00
2023-05-05T04:07:10.070Z,204.00
2023-05-05T04:08:10.004Z,212.00
2023-05-05T04:09:09.897Z,232.00
2023-05-05T04:10:10.048Z,244.00
2023-05-05T04:11:20.057Z,264.00
2023-05-05T04:12:09.993Z,276.00
2023-05-05T04:13:09.970Z,292.00
2023-05-05T04:14:09.823Z,312.00
2023-05-05T04:15:09.766Z,324.00
2023-05-05T04:16:09.800Z,344.00
2023-05-05T04:17:20.173Z,360.00
2023-05-05T04:18:10.033Z,380.00
2023-05-05T04:19:09.815Z,400.00
2023-05-05T04:20:09.987Z,416.00
2023-05-05T04:21:09.745Z,436.00
2023-05-05T04:22:09.801Z,460.00
2023-05-05T04:23:20.083Z,488.00
2023-05-05T04:24:09.793Z,512.00
2023-05-05T04:25:09.787Z,540.00
2023-05-05T04:26:09.774Z,564.00
2023-05-05T04:27:09.607Z,584.00
2023-05-05T04:28:09.716Z,608.00
2023-05-05T04:29:19.867Z,636.00
2023-05-05T04:30:09.829Z,656.00
2023-05-05T04:31:09.665Z,676.00
2023-05-05T04:32:18.949Z,692.00
2023-05-05T04:33:10.130Z,712.00
2023-05-05T04:34:09.667Z,728.00
2023-05-05T04:35:19.705Z,740.00
2023-05-05T04:36:09.668Z,756.00
2023-05-05T04:39:24.492Z,808.00
2023-05-05T04:40:24.683Z,828.00
2023-05-05T04:41:24.451Z,844.00
2023-05-05T04:42:24.370Z,864.00
2023-05-05T04:43:25.706Z,884.00
2023-05-05T04:44:25.911Z,892.00
2023-05-05T04:45:25.851Z,896.00
2023-05-05T04:46:25.920Z,912.00
2023-05-05T04:47:25.712Z,940.00
2023-05-05T04:48:25.617Z,952.00
2023-05-05T04:49:25.708Z,972.00
2023-05-05T04:50:25.652Z,992.00
2023-05-05T04:51:25.818Z,1024.00
2023-05-05T04:52:25.692Z,1076.00
2023-05-05T04:53:25.674Z,1104.00
2023-05-05T04:54:25.671Z,1128.00
2023-05-05T04:55:25.640Z,1168.00
2023-05-05T04:56:25.590Z,1220.00
2023-05-05T04:57:25.831Z,1236.00
2023-05-05T04:58:25.601Z,1252.00
2023-05-05T04:59:25.356Z,1260.00
2023-05-05T05:00:26.089Z,1268.00
2023-05-05T05:01:25.416Z,1248.00
2023-05-05T05:02:25.445Z,1196.00
2023-05-05T05:03:25.386Z,1244.00
2023-05-05T05:04:25.275Z,1288.00
2023-05-05T05:05:25.292Z,1340.00
2023-05-05T05:06:25.283Z,1404.00
2023-05-05T05:07:25.215Z,1596.00
2023-05-05T05:08:25.167Z,1548.00
2023-05-05T05:09:25.179Z,1524.00
2023-05-05T05:10:25.223Z,1568.00
2023-05-05T05:11:25.317Z,1564.00
2023-05-05T05:12:25.241Z,1712.00
2023-05-05T05:13:25.417Z,1748.00
2023-05-05T05:14:25.303Z,1792.00
2023-05-05T05:15:25.153Z,1808.00
2023-05-05T05:16:25.234Z,1800.00
2023-05-05T05:17:25.162Z,1768.00
2023-05-05T05:18:25.174Z,1872.00
2023-05-05T05:19:25.150Z,1888.00
2023-05-05T05:20:25.203Z,1888.00
2023-05-05T05:21:25.222Z,1872.00
2023-05-05T05:22:25.181Z,1880.00
2023-05-05T05:23:25.116Z,1852.00
2023-05-05T05:24:25.128Z,1808.00
2023-05-05T05:25:25.049Z,1436.00
2023-05-05T05:26:25.097Z,1488.00
2023-05-05T05:27:25.092Z,1440.00
2023-05-05T05:28:25.151Z,1456.00
2023-05-05T05:29:25.064Z,1468.00
2023-05-05T05:30:25.025Z,1504.00
2023-05-05T05:31:25.092Z,1540.00
2023-05-05T05:32:24.996Z,1612.00
2023-05-05T05:33:25.242Z,1624.00
2023-05-05T05:34:25.247Z,1732.00
2023-05-05T05:35:25.232Z,1660.00
2023-05-05T05:36:25.320Z,1696.00
2023-05-05T05:37:25.247Z,1976.00
2023-05-05T05:38:25.231Z,1644.00
2023-05-05T05:39:25.140Z,1640.00
2023-05-05T05:42:54.537Z,1676.00
2023-05-05T05:43:54.875Z,1688.00
2023-05-05T05:44:54.297Z,1696.00
2023-05-05T05:45:54.342Z,1700.00
2023-05-05T05:46:54.286Z,1700.00
2023-05-05T05:47:54.338Z,1708.00
2023-05-05T05:48:54.154Z,1724.00
2023-05-05T05:49:54.196Z,1748.00
2023-05-05T05:50:54.125Z,1784.00
2023-05-05T05:51:54.172Z,1960.00
2023-05-05T05:52:54.141Z,1988.00
2023-05-05T05:53:55.106Z,1888.00
2023-05-05T05:54:54.269Z,1928.00
2023-05-05T05:55:54.136Z,1964.00
2023-05-05T05:56:54.141Z,2024.00
2023-05-05T05:57:54.149Z,2128.00
2023-05-05T05:58:54.138Z,2888.00
2023-05-05T05:59:54.052Z,2996.00
2023-05-05T06:00:53.904Z,3052.00
2023-05-05T06:01:54.017Z,3120.00
2023-05-05T06:02:54.172Z,3168.00
2023-05-05T06:03:54.113Z,3252.00
2023-05-05T06:04:54.114Z,3280.00
2023-05-05T06:05:54.083Z,3316.00
2023-05-05T06:06:54.134Z,3000.00
2023-05-05T06:10:27.357Z,3376.00
2023-05-05T06:11:24.760Z,3268.00
2023-05-05T06:12:24.624Z,3476.00
2023-05-05T06:13:24.816Z,2888.00
2023-05-05T06:14:24.551Z,3220.00
2023-05-05T06:15:24.568Z,3532.00
2023-05-05T06:16:24.602Z,3576.00
2023-05-05T06:17:24.532Z,2468.00
2023-05-05T06:18:24.553Z,2460.00
2023-05-05T06:19:24.497Z,2468.00
2023-05-05T06:20:24.527Z,2484.00
2023-05-05T06:21:24.663Z,2492.00
2023-05-05T06:22:24.473Z,2504.00
2023-05-05T06:23:24.448Z,2520.00
2023-05-05T06:24:24.431Z,3540.00
2023-05-05T06:25:24.419Z,3420.00
2023-05-05T06:26:24.447Z,2888.00
2023-05-05T06:27:24.432Z,2528.00
2023-05-05T06:28:24.396Z,2436.00
2023-05-05T06:29:24.405Z,2432.00
2023-05-05T06:30:24.365Z,2460.00
2023-05-05T06:31:24.401Z,2504.00
2023-05-05T06:32:24.439Z,2568.00
2023-05-05T06:33:24.370Z,2636.00
2023-05-05T06:34:24.323Z,2704.00
2023-05-05T06:35:24.300Z,2804.00
2023-05-05T06:36:24.317Z,3736.00
2023-05-05T06:37:24.275Z,2960.00
2023-05-05T06:38:24.287Z,2872.00
2023-05-05T06:39:24.254Z,2816.00
2023-05-05T06:40:24.243Z,2780.00
2023-05-05T06:41:24.227Z,2828.00
2023-05-05T06:42:24.238Z,3064.00
2023-05-05T06:43:24.234Z,3248.00
2023-05-05T06:44:24.279Z,3312.00
2023-05-05T06:45:24.179Z,4344.00
2023-05-05T06:46:25.313Z,2940.00
2023-05-05T06:47:25.316Z,2716.00
2023-05-05T06:48:25.305Z,2652.00
2023-05-05T06:49:25.237Z,2616.00
2023-05-05T06:50:25.248Z,2560.00
2023-05-05T06:51:25.288Z,2504.00
2023-05-05T06:52:25.208Z,2468.00
2023-05-05T06:53:25.204Z,2472.00
2023-05-05T06:54:25.214Z,2512.00
2023-05-05T06:55:25.184Z,2576.00
2023-05-05T06:56:25.321Z,2708.00
2023-05-05T06:57:25.156Z,2812.00
2023-05-05T06:58:25.231Z,2896.00
2023-05-05T06:59:25.190Z,3000.00
2023-05-05T07:00:25.125Z,4120.00
2023-05-05T07:01:25.199Z,3416.00
2023-05-05T07:02:26.843Z,3112.00
2023-05-05T07:03:26.117Z,3528.00
2023-05-05T07:04:25.122Z,4324.00
2023-05-05T07:05:25.077Z,3296.00
2023-05-05T07:06:25.047Z,3184.00
2023-05-05T07:07:25.062Z,3104.00
2023-05-05T07:08:25.041Z,3780.00
2023-05-05T07:09:25.020Z,3036.00
2023-05-05T07:10:25.058Z,3060.00
2023-05-05T07:11:24.997Z,3116.00
2023-05-05T07:12:24.984Z,3168.00
2023-05-05T07:13:25.133Z,3252.00
2023-05-05T07:14:24.962Z,3428.00
2023-05-05T07:15:28.774Z,3412.00
2023-05-05T07:16:25.970Z,3168.00
2023-05-05T07:17:24.952Z,3124.00
2023-05-05T07:18:24.923Z,3124.00
2023-05-05T07:19:24.908Z,3056.00
2023-05-05T07:20:24.884Z,3056.00
2023-05-05T07:21:24.904Z,3044.00
2023-05-05T07:22:24.858Z,3060.00
2023-05-05T07:23:24.977Z,3120.00
2023-05-05T07:24:24.837Z,3228.00
2023-05-05T07:25:24.812Z,3376.00
2023-05-05T07:26:24.861Z,3480.00
2023-05-05T07:27:24.793Z,3624.00
2023-05-05T07:28:24.891Z,3784.00
2023-05-05T07:29:24.900Z,4544.00
2023-05-05T07:30:25.102Z,4768.00
2023-05-05T07:31:24.838Z,4812.00
2023-05-05T07:32:24.771Z,5216.00
2023-05-05T07:33:24.719Z,5172.00
2023-05-05T07:34:24.728Z,4156.00
2023-05-05T07:35:24.692Z,3988.00
2023-05-05T07:36:24.687Z,3936.00
2023-05-05T07:37:24.724Z,3900.00
2023-05-05T07:38:24.685Z,5348.00
2023-05-05T07:39:24.713Z,3992.00
2023-05-05T07:40:24.643Z,5092.00
2023-05-05T07:41:24.628Z,5452.00
2023-05-05T07:42:24.665Z,5468.00
2023-05-05T07:43:24.585Z,5428.00
2023-05-05T07:44:24.577Z,5328.00
2023-05-05T07:45:24.592Z,5180.00
2023-05-05T07:46:24.564Z,5376.00
2023-05-05T07:47:24.558Z,5448.00
2023-05-05T07:48:24.562Z,5512.00
2023-05-05T07:49:24.520Z,5528.00
2023-05-05T07:50:24.525Z,5428.00
2023-05-05T07:51:24.488Z,5224.00
2023-05-05T07:52:36.999Z,5000.00
2023-05-05T07:53:24.945Z,3616.00
2023-05-05T07:54:24.469Z,2836.00
2023-05-05T07:55:24.507Z,2508.00
2023-05-05T07:56:24.427Z,2312.00
2023-05-05T07:57:24.441Z,2232.00
2023-05-05T07:58:24.411Z,2220.00
2023-05-05T07:59:24.411Z,2228.00
2023-05-05T08:00:24.389Z,2228.00
2023-05-05T08:01:24.386Z,2236.00
2023-05-05T08:02:24.786Z,2240.00
2023-05-05T08:03:24.991Z,2364.00
2023-05-05T08:04:24.385Z,2552.00
2023-05-05T08:05:24.338Z,2736.00
2023-05-05T08:06:24.313Z,2988.00
2023-05-05T08:07:24.310Z,3836.00
2023-05-05T08:08:24.322Z,4436.00
2023-05-05T08:09:24.285Z,3240.00
2023-05-05T08:10:24.328Z,3292.00
2023-05-05T08:11:24.318Z,3324.00
2023-05-05T08:12:24.244Z,3348.00
2023-05-05T08:13:24.236Z,3944.00
2023-05-05T08:14:24.261Z,3284.00
2023-05-05T08:15:24.201Z,3272.00
2023-05-05T08:16:24.411Z,3300.00
2023-05-05T08:17:24.186Z,3412.00
2023-05-05T08:18:24.166Z,3344.00
2023-05-05T08:19:29.192Z,3284.00
2023-05-05T08:20:24.156Z,3336.00
2023-05-05T08:21:24.148Z,3464.00
2023-05-05T08:22:24.125Z,3448.00
2023-05-05T08:23:24.112Z,4556.00
2023-05-05T08:24:24.108Z,3292.00
2023-05-05T08:25:24.114Z,3296.00
2023-05-05T08:26:24.073Z,3392.00
2023-05-05T08:27:24.140Z,4632.00
2023-05-05T08:28:24.063Z,4020.00
2023-05-05T08:29:24.047Z,3208.00
2023-05-05T08:30:24.109Z,3352.00
2023-05-05T08:31:24.211Z,3076.00
2023-05-05T08:32:27.858Z,3180.00
2023-05-05T08:33:24.133Z,3296.00
2023-05-05T08:34:24.503Z,4108.00
2023-05-05T08:35:24.500Z,3148.00
2023-05-05T08:36:23.977Z,3008.00
2023-05-05T08:37:24.332Z,2952.00
2023-05-05T08:38:23.944Z,2948.00
2023-05-05T08:39:26.119Z,2916.00
2023-05-05T08:40:23.965Z,2940.00
2023-05-05T08:41:23.900Z,2992.00
2023-05-05T08:42:36.265Z,3040.00
2023-05-05T08:43:24.566Z,3108.00
2023-05-05T08:44:23.874Z,2980.00
2023-05-05T08:45:23.868Z,2880.00
2023-05-05T08:46:25.386Z,2880.00
2023-05-05T08:47:23.911Z,2952.00
2023-05-05T08:48:24.606Z,2976.00
2023-05-05T08:49:23.792Z,2980.00
2023-05-05T08:50:23.919Z,3016.00
2023-05-05T08:51:23.822Z,3064.00
2023-05-05T08:52:23.810Z,3136.00
2023-05-05T08:53:23.746Z,3236.00
2023-05-05T08:54:24.569Z,3344.00
2023-05-05T08:55:24.223Z,3272.00
2023-05-05T08:56:24.184Z,3292.00
2023-05-05T08:57:24.696Z,3036.00
2023-05-05T08:58:23.861Z,2984.00
2023-05-05T08:59:24.173Z,3016.00
2023-05-05T09:00:24.195Z,3024.00
2023-05-05T09:01:24.800Z,3024.00
2023-05-05T09:02:27.313Z,2984.00
2023-05-05T09:03:24.135Z,2976.00
2023-05-05T09:04:23.778Z,2932.00
2023-05-05T09:05:24.299Z,2980.00
2023-05-05T09:06:23.769Z,3080.00
2023-05-05T09:07:23.750Z,3204.00
2023-05-05T09:08:23.718Z,3332.00
2023-05-05T09:09:27.494Z,3472.00
2023-05-05T09:10:23.569Z,3644.00
2023-05-05T09:11:23.627Z,3796.00
2023-05-05T09:12:23.555Z,3860.00
2023-05-05T09:13:27.574Z,3844.00
2023-05-05T09:14:24.535Z,3832.00
2023-05-05T09:15:23.599Z,3892.00
2023-05-05T09:16:23.526Z,4128.00
2023-05-05T09:17:26.015Z,4476.00
2023-05-05T09:18:27.039Z,4772.00
2023-05-05T09:19:25.215Z,5060.00
2023-05-05T09:20:26.432Z,6176.00
2023-05-05T09:21:24.090Z,6316.00
2023-05-05T09:22:25.377Z,5820.00
2023-05-05T09:23:24.778Z,6948.00
2023-05-05T09:24:24.285Z,6264.00
2023-05-05T09:25:23.854Z,5264.00
2023-05-05T09:26:24.317Z,5316.00
2023-05-05T09:27:23.838Z,6192.00
2023-05-05T09:28:23.397Z,6620.00
2023-05-05T09:29:23.696Z,5580.00
2023-05-05T09:30:24.132Z,6592.00
2023-05-05T09:31:26.997Z,5988.00
2023-05-05T09:32:23.474Z,5760.00
2023-05-05T09:33:23.327Z,5760.00
2023-05-05T09:34:23.283Z,5832.00
2023-05-05T09:35:23.476Z,6036.00
2023-05-05T09:36:23.231Z,6140.00
2023-05-05T09:37:23.991Z,7196.00
2023-05-05T09:38:23.229Z,6060.00
2023-05-05T09:39:23.292Z,5820.00
2023-05-05T09:40:24.179Z,5692.00
2023-05-05T09:41:23.173Z,5800.00
2023-05-05T09:42:23.357Z,5996.00
2023-05-05T09:43:23.148Z,6348.00
2023-05-05T09:44:23.165Z,6120.00
2023-05-05T09:45:32.228Z,5936.00
2023-05-05T09:46:28.180Z,5532.00
2023-05-05T09:47:43.898Z,5512.00
2023-05-05T09:48:32.397Z,5808.00
2023-05-05T09:49:49.167Z,8004.00
2023-05-05T09:50:25.178Z,7860.00
2023-05-05T09:51:27.846Z,8288.00
2023-05-05T09:52:24.139Z,8308.00
2023-05-05T09:53:23.467Z,8348.00
2023-05-05T09:54:23.106Z,8300.00
2023-05-05T09:55:23.293Z,8280.00
2023-05-05T09:56:23.131Z,8336.00
2023-05-05T09:57:23.123Z,8448.00
2023-05-05T09:58:23.245Z,8408.00
2023-05-05T09:59:23.156Z,8416.00
2023-05-05T10:00:23.188Z,8464.00
2023-05-05T10:01:22.924Z,8420.00
2023-05-05T10:02:22.902Z,8376.00
2023-05-05T10:03:26.500Z,8484.00
2023-05-05T10:04:23.123Z,8444.00
2023-05-05T10:06:10.947Z,8380.00
2023-05-05T10:06:28.240Z,8472.00
2023-05-05T10:07:23.906Z,8456.00
2023-05-05T10:08:22.973Z,8220.00
2023-05-05T10:09:22.947Z,8172.00
2023-05-05T10:13:25.397Z,8484.00
2023-05-05T10:14:24.613Z,8436.00
2023-05-05T10:15:24.563Z,8232.00
2023-05-05T10:16:24.802Z,7200.00
2023-05-05T10:17:24.600Z,6604.00
2023-05-05T10:18:24.685Z,6456.00
2023-05-05T10:19:24.573Z,6492.00
2023-05-05T10:20:24.610Z,7180.00
2023-05-05T10:21:25.719Z,6752.00
2023-05-05T10:22:25.798Z,6340.00
2023-05-05T10:23:25.552Z,7532.00
2023-05-05T10:24:25.656Z,7672.00
2023-05-05T10:25:25.559Z,8060.00
2023-05-05T10:26:25.500Z,8100.00
2023-05-05T10:27:25.571Z,7776.00
2023-05-05T10:28:25.579Z,7396.00
2023-05-05T10:29:25.651Z,6476.00
2023-05-05T10:30:25.768Z,6264.00
2023-05-05T10:31:26.721Z,6064.00
2023-05-05T10:32:50.142Z,5876.00
2023-05-05T10:33:31.045Z,5732.00
2023-05-05T10:34:30.220Z,5952.00
2023-05-05T10:35:37.267Z,5088.00
2023-05-05T10:36:31.032Z,4772.00
2023-05-05T10:37:27.770Z,4532.00
2023-05-05T10:38:44.359Z,4332.00
2023-05-05T10:39:25.368Z,4152.00
2023-05-05T10:40:25.354Z,3936.00
2023-05-05T10:41:32.541Z,3564.00
2023-05-05T10:42:26.319Z,3296.00
2023-05-05T12:04:58.314Z,4492.00
2023-05-05T12:05:59.712Z,4300.00
2023-05-05T12:06:59.458Z,3640.00
2023-05-05T12:08:07.273Z,3104.00
2023-05-05T12:08:59.761Z,2800.00
2023-05-05T13:39:00.844Z,6452.00
2023-05-05T13:40:00.929Z,6944.00
2023-05-05T13:41:00.860Z,6944.00
2023-05-05T13:55:04.315Z,9000.00
2023-05-05T13:56:12.904Z,9244.00
2023-05-05T14:01:43.408Z,9416.00
2023-05-05T14:02:45.226Z,8968.00
2023-05-05T14:03:43.295Z,8880.00
2023-05-05T14:04:43.266Z,8784.00
2023-05-05T14:05:43.212Z,8348.00
2023-05-05T14:06:43.222Z,7800.00
2023-05-05T14:07:43.177Z,7268.00
2023-05-05T14:08:43.165Z,6648.00
2023-05-05T14:09:43.208Z,6520.00
2023-05-05T14:10:45.427Z,6316.00
2023-05-05T14:11:43.132Z,6012.00
2023-05-05T14:12:43.187Z,6068.00
2023-05-05T14:13:44.262Z,6048.00
2023-05-05T14:14:44.222Z,5332.00
2023-05-05T14:15:44.236Z,5176.00
2023-05-05T14:16:44.285Z,4592.00
2023-05-05T14:17:44.275Z,4212.00
2023-05-05T14:18:44.625Z,3976.00
2023-05-05T14:19:44.213Z,3872.00
2023-05-05T14:20:44.229Z,3856.00
2023-05-05T14:21:44.288Z,3780.00
2023-05-05T14:22:44.261Z,3708.00
2023-05-05T14:23:44.147Z,3656.00
2023-05-05T14:24:44.149Z,3600.00
2023-05-05T14:25:44.135Z,3572.00
2023-05-05T14:26:44.176Z,3520.00
2023-05-05T14:27:45.070Z,3484.00
2023-05-05T14:28:44.304Z,3468.00
2023-05-05T14:29:44.076Z,3456.00
2023-05-05T14:30:44.050Z,3424.00
2023-05-05T14:31:44.111Z,3352.00
2023-05-05T14:32:44.042Z,3240.00
2023-05-05T14:33:44.014Z,3092.00
2023-05-05T14:34:44.019Z,2884.00
2023-05-05T14:35:44.058Z,2660.00
2023-05-05T14:36:44.037Z,2428.00
2023-05-05T14:37:44.160Z,2224.00
2023-05-05T14:38:44.002Z,2052.00
2023-05-05T14:39:44.004Z,1896.00
2023-05-05T14:40:44.375Z,1776.00
2023-05-05T14:41:43.951Z,1688.00
2023-05-05T14:42:44.005Z,1612.00
2023-05-05T14:43:43.936Z,1540.00
2023-05-05T14:44:43.881Z,1480.00
2023-05-05T14:45:43.942Z,1420.00
2023-05-05T14:46:45.969Z,1348.00
2023-05-05T14:47:44.878Z,1280.00
2023-05-05T14:48:43.851Z,1208.00
2023-05-05T14:49:43.921Z,1140.00
2023-05-05T14:50:43.848Z,1076.00
2023-05-05T14:51:43.838Z,1016.00
2023-05-05T14:52:43.826Z,964.00
2023-05-05T14:53:43.855Z,908.00
2023-05-05T14:54:43.752Z,856.00
2023-05-05T14:55:43.786Z,800.00
2023-05-05T14:56:43.693Z,756.00
2023-05-05T14:57:43.785Z,716.00
2023-05-05T14:58:43.875Z,680.00
2023-05-05T14:59:43.782Z,652.00
2023-05-05T15:00:43.768Z,632.00
2023-05-05T15:01:43.710Z,608.00
2023-05-05T15:02:45.021Z,584.00
2023-05-05T15:03:43.948Z,560.00
2023-05-05T15:04:43.581Z,532.00
2023-05-05T15:05:43.685Z,500.00
2023-05-05T15:06:43.568Z,464.00
2023-05-05T15:07:43.567Z,432.00
2023-05-05T15:08:43.572Z,392.00
2023-05-05T15:09:43.888Z,352.00
2023-05-05T15:10:43.514Z,308.00
2023-05-05T15:11:43.533Z,260.00
2023-05-05T15:12:43.592Z,224.00
2023-05-05T15:13:43.511Z,200.00
2023-05-05T15:14:43.601Z,188.00
2023-05-05T15:15:43.487Z,172.00
2023-05-05T15:16:43.418Z,164.00
2023-05-05T15:17:43.462Z,160.00
2023-05-05T15:18:43.432Z,156.00
2023-05-05T15:19:43.392Z,148.00
2023-05-05T15:20:43.440Z,144.00
2023-05-05T15:21:43.381Z,148.00
2023-05-05T15:22:43.367Z,152.00
2023-05-05T15:23:43.342Z,160.00
2023-05-05T15:24:43.331Z,168.00
2023-05-05T15:26:18.734Z,172.00
2023-05-05T15:26:43.663Z,180.00
2023-05-05T15:27:46.806Z,184.00
2023-05-05T15:28:43.275Z,192.00
2023-05-05T15:29:43.288Z,200.00
2023-05-05T15:30:43.453Z,212.00
2023-05-05T15:31:43.244Z,224.00
2023-05-05T15:32:43.374Z,232.00
2023-05-05T15:33:43.219Z,240.00
2023-05-05T15:34:43.227Z,248.00
2023-05-05T15:35:43.242Z,256.00
2023-05-05T15:36:43.214Z,268.00
2023-05-05T15:37:43.195Z,280.00
2023-05-05T15:38:43.199Z,288.00
2023-05-05T15:39:43.155Z,316.00
2023-05-05T15:41:18.604Z,368.00
2023-05-05T15:41:43.340Z,408.00
2023-05-05T15:42:43.484Z,480.00
2023-05-05T15:43:43.137Z,536.00
2023-05-05T15:44:43.097Z,600.00
2023-05-05T15:45:43.084Z,640.00
2023-05-05T15:46:43.206Z,672.00
2023-05-05T15:47:43.138Z,684.00
2023-05-05T15:48:43.074Z,692.00
2023-05-05T15:49:43.082Z,704.00
2023-05-05T16:18:40.598Z,868.00
2023-05-05T16:19:41.791Z,868.00
2023-05-05T16:45:57.570Z,496.00
2023-05-05T16:46:58.218Z,492.00
2023-05-05T16:47:57.717Z,484.00
2023-05-05T16:48:57.356Z,476.00
2023-05-05T16:49:57.379Z,472.00